sensor_id;sensor_type;location;lat;lon;timestamp;pressure;altitude;pressure_sealevel;temperature;humidity
49393;BME280;35268;42.642;23.308;2023-04-07T00:00:38;93624.09;;;1.26;46.88
49393;BME280;35268;42.642;23.308;2023-04-07T00:03:04;93617.78;;;1.17;47.22
49393;BME280;35268;42.642;23.308;2023-04-07T00:05:31;93623.53;;;1.14;47.23
49393;BME280;35268;42.642;23.308;2023-04-07T00:07:57;93620.94;;;1.19;46.86
49393;BME280;35268;42.642;23.308;2023-04-07T00:10:23;93624.34;;;1.14;47.28
49393;BME280;35268;42.642;23.308;2023-04-07T00:12:49;93617.25;;;1.20;47.38
49393;BME280;35268;42.642;23.308;2023-04-07T00:15:15;93621.44;;;1.16;46.71
49393;BME280;35268;42.642;23.308;2023-04-07T00:17:40;93620.41;;;1.22;46.60
49393;BME280;35268;42.642;23.308;2023-04-07T00:20:06;93627.53;;;1.27;46.91
49393;BME280;35268;42.642;23.308;2023-04-07T00:22:32;93616.72;;;1.13;47.71
49393;BME280;35268;42.642;23.308;2023-04-07T00:24:57;93623.03;;;1.17;47.03
49393;BME280;35268;42.642;23.308;2023-04-07T00:27:22;93623.84;;;1.23;47.46
49393;BME280;35268;42.642;23.308;2023-04-07T00:29:48;93618.84;;;1.21;47.35
49393;BME280;35268;42.642;23.308;2023-04-07T00:32:13;93625.13;;;1.20;46.01
49393;BME280;35268;42.642;23.308;2023-04-07T00:34:39;93614.09;;;1.18;46.27
49393;BME280;35268;42.642;23.308;2023-04-07T00:37:04;93608.34;;;1.21;45.93
49393;BME280;35268;42.642;23.308;2023-04-07T00:39:31;93612.00;;;1.15;46.32
49393;BME280;35268;42.642;23.308;2023-04-07T00:41:57;93617.50;;;1.13;46.55
49393;BME280;35268;42.642;23.308;2023-04-07T00:44:22;93611.75;;;1.22;46.17
49393;BME280;35268;42.642;23.308;2023-04-07T00:46:48;93615.44;;;1.20;46.00
49393;BME280;35268;42.642;23.308;2023-04-07T00:49:14;93612.53;;;1.17;46.33
49393;BME280;35268;42.642;23.308;2023-04-07T00:51:42;93615.69;;;1.24;46.35
49393;BME280;35268;42.642;23.308;2023-04-07T00:54:08;93609.66;;;1.18;46.90
49393;BME280;35268;42.642;23.308;2023-04-07T00:56:34;93619.38;;;1.23;46.96
49393;BME280;35268;42.642;23.308;2023-04-07T00:59:00;93622.00;;;1.23;46.69
49393;BME280;35268;42.642;23.308;2023-04-07T01:01:30;93613.88;;;1.25;45.98
49393;BME280;35268;42.642;23.308;2023-04-07T01:04:00;93610.44;;;1.19;46.36
49393;BME280;35268;42.642;23.308;2023-04-07T01:06:32;93610.19;;;1.26;46.41
49393;BME280;35268;42.642;23.308;2023-04-07T01:12:06;93613.06;;;1.19;46.67
49393;BME280;35268;42.642;23.308;2023-04-07T01:14:36;93600.44;;;1.16;46.62
49393;BME280;35268;42.642;23.308;2023-04-07T01:17:05;93599.16;;;1.24;46.49
49393;BME280;35268;42.642;23.308;2023-04-07T01:22:14;93603.88;;;1.22;46.56
49393;BME280;35268;42.642;23.308;2023-04-07T01:24:53;93593.66;;;1.25;47.01
49393;BME280;35268;42.642;23.308;2023-04-07T01:30:19;93593.63;;;1.20;47.47
49393;BME280;35268;42.642;23.308;2023-04-07T01:32:50;93593.13;;;1.23;46.98
49393;BME280;35268;42.642;23.308;2023-04-07T01:35:17;93595.47;;;1.19;47.21
49393;BME280;35268;42.642;23.308;2023-04-07T01:37:43;93582.63;;;1.23;47.16
49393;BME280;35268;42.642;23.308;2023-04-07T01:40:13;93596.25;;;1.30;47.17
49393;BME280;35268;42.642;23.308;2023-04-07T01:42:40;93584.19;;;1.29;46.98
49393;BME280;35268;42.642;23.308;2023-04-07T01:45:07;93586.84;;;1.34;46.50
49393;BME280;35268;42.642;23.308;2023-04-07T01:47:34;93595.22;;;1.42;46.37
49393;BME280;35268;42.642;23.308;2023-04-07T01:50:02;93577.91;;;1.35;45.73
49393;BME280;35268;42.642;23.308;2023-04-07T01:52:30;93592.34;;;1.38;46.15
49393;BME280;35268;42.642;23.308;2023-04-07T01:54:56;93585.53;;;1.37;45.94
49393;BME280;35268;42.642;23.308;2023-04-07T01:57:22;93591.56;;;1.37;46.14
49393;BME280;35268;42.642;23.308;2023-04-07T01:59:47;93576.88;;;1.47;45.47
49393;BME280;35268;42.642;23.308;2023-04-07T02:02:13;93583.94;;;1.41;45.42
49393;BME280;35268;42.642;23.308;2023-04-07T02:04:53;93586.31;;;1.43;45.29
49393;BME280;35268;42.642;23.308;2023-04-07T02:08:08;93562.16;;;1.40;45.20
49393;BME280;35268;42.642;23.308;2023-04-07T02:10:11;93578.94;;;1.50;45.20
49393;BME280;35268;42.642;23.308;2023-04-07T02:12:38;93563.47;;;1.53;44.95
49393;BME280;35268;42.642;23.308;2023-04-07T02:15:07;93577.13;;;1.55;44.85
49393;BME280;35268;42.642;23.308;2023-04-07T02:17:35;93576.56;;;1.58;45.19
49393;BME280;35268;42.642;23.308;2023-04-07T02:20:02;93576.59;;;1.48;44.83
49393;BME280;35268;42.642;23.308;2023-04-07T02:22:28;93576.34;;;1.55;44.92
49393;BME280;35268;42.642;23.308;2023-04-07T02:24:54;93569.00;;;1.47;44.76
49393;BME280;35268;42.642;23.308;2023-04-07T02:27:20;93577.09;;;1.50;45.12
49393;BME280;35268;42.642;23.308;2023-04-07T02:29:45;93574.75;;;1.54;45.41
49393;BME280;35268;42.642;23.308;2023-04-07T02:32:11;93570.03;;;1.51;45.32
49393;BME280;35268;42.642;23.308;2023-04-07T02:34:36;93573.44;;;1.56;45.48
49393;BME280;35268;42.642;23.308;2023-04-07T02:37:02;93574.25;;;1.57;44.90
49393;BME280;35268;42.642;23.308;2023-04-07T02:39:27;93577.38;;;1.59;45.44
49393;BME280;35268;42.642;23.308;2023-04-07T02:41:52;93574.25;;;1.57;45.26
49393;BME280;35268;42.642;23.308;2023-04-07T02:44:18;93581.56;;;1.60;45.54
49393;BME280;35268;42.642;23.308;2023-04-07T02:46:43;93576.34;;;1.65;45.46
49393;BME280;35268;42.642;23.308;2023-04-07T02:49:08;93580.25;;;1.52;45.62
49393;BME280;35268;42.642;23.308;2023-04-07T02:51:34;93581.84;;;1.48;46.05
49393;BME280;35268;42.642;23.308;2023-04-07T02:53:59;93586.84;;;1.65;45.54
49393;BME280;35268;42.642;23.308;2023-04-07T02:56:25;93584.72;;;1.62;46.16
49393;BME280;35268;42.642;23.308;2023-04-07T02:58:51;93585.25;;;1.64;45.92
49393;BME280;35268;42.642;23.308;2023-04-07T03:01:16;93586.81;;;1.70;46.31
49393;BME280;35268;42.642;23.308;2023-04-07T03:03:42;93586.31;;;1.68;45.75
49393;BME280;35268;42.642;23.308;2023-04-07T03:06:09;93584.22;;;1.75;45.64
49393;BME280;35268;42.642;23.308;2023-04-07T03:08:34;93593.13;;;1.74;45.02
49393;BME280;35268;42.642;23.308;2023-04-07T03:11:00;93601.03;;;1.69;45.15
49393;BME280;35268;42.642;23.308;2023-04-07T03:13:25;93593.66;;;1.71;45.35
49393;BME280;35268;42.642;23.308;2023-04-07T03:15:51;93593.66;;;1.76;46.04
49393;BME280;35268;42.642;23.308;2023-04-07T03:18:17;93587.88;;;1.69;45.64
49393;BME280;35268;42.642;23.308;2023-04-07T03:20:42;93587.88;;;1.74;45.29
49393;BME280;35268;42.642;23.308;2023-04-07T03:23:08;93594.97;;;1.74;45.71
49393;BME280;35268;42.642;23.308;2023-04-07T03:25:34;93598.38;;;1.79;45.84
49393;BME280;35268;42.642;23.308;2023-04-07T03:27:59;93600.22;;;1.74;45.49
49393;BME280;35268;42.642;23.308;2023-04-07T03:30:25;93592.34;;;1.69;45.51
49393;BME280;35268;42.642;23.308;2023-04-07T03:32:51;93582.63;;;1.69;45.38
49393;BME280;35268;42.642;23.308;2023-04-07T03:35:17;93584.72;;;1.72;45.78
49393;BME280;35268;42.642;23.308;2023-04-07T03:37:42;93588.66;;;1.70;45.93
49393;BME280;35268;42.642;23.308;2023-04-07T03:40:08;93582.34;;;1.71;46.07
49393;BME280;35268;42.642;23.308;2023-04-07T03:42:33;93584.75;;;1.67;45.78
49393;BME280;35268;42.642;23.308;2023-04-07T03:44:59;93579.72;;;1.71;46.35
49393;BME280;35268;42.642;23.308;2023-04-07T03:47:24;93575.28;;;1.61;46.41
49393;BME280;35268;42.642;23.308;2023-04-07T03:49:50;93576.59;;;1.53;46.58
49393;BME280;35268;42.642;23.308;2023-04-07T03:52:15;93577.09;;;1.60;46.45
49393;BME280;35268;42.642;23.308;2023-04-07T03:54:42;93573.94;;;1.69;46.36
49393;BME280;35268;42.642;23.308;2023-04-07T03:57:07;93574.22;;;1.62;46.62
49393;BME280;35268;42.642;23.308;2023-04-07T03:59:32;93589.47;;;1.65;46.61
49393;BME280;35268;42.642;23.308;2023-04-07T04:01:58;93581.84;;;1.53;47.24
49393;BME280;35268;42.642;23.308;2023-04-07T04:04:24;93580.53;;;1.40;47.36
49393;BME280;35268;42.642;23.308;2023-04-07T04:06:49;93579.50;;;1.36;47.33
49393;BME280;35268;42.642;23.308;2023-04-07T04:09:15;93592.09;;;1.34;47.45
49393;BME280;35268;42.642;23.308;2023-04-07T04:11:41;93580.00;;;1.33;47.34
49393;BME280;35268;42.642;23.308;2023-04-07T04:14:06;93582.66;;;1.38;47.35
49393;BME280;35268;42.642;23.308;2023-04-07T04:16:31;93573.72;;;1.45;47.34
49393;BME280;35268;42.642;23.308;2023-04-07T04:18:59;93593.13;;;1.44;47.47
49393;BME280;35268;42.642;23.308;2023-04-07T04:21:25;93597.34;;;1.45;46.94
49393;BME280;35268;42.642;23.308;2023-04-07T04:23:51;93591.81;;;1.41;46.96
49393;BME280;35268;42.642;23.308;2023-04-07T04:26:17;93591.06;;;1.40;47.11
49393;BME280;35268;42.642;23.308;2023-04-07T04:28:42;93599.44;;;1.43;47.23
49393;BME280;35268;42.642;23.308;2023-04-07T04:31:08;93612.06;;;1.40;47.00
49393;BME280;35268;42.642;23.308;2023-04-07T04:33:33;93599.69;;;1.46;46.93
49393;BME280;35268;42.642;23.308;2023-04-07T04:35:59;93597.34;;;1.55;47.47
49393;BME280;35268;42.642;23.308;2023-04-07T04:38:24;93608.38;;;1.62;47.37
49393;BME280;35268;42.642;23.308;2023-04-07T04:40:50;93601.53;;;1.66;46.75
49393;BME280;35268;42.642;23.308;2023-04-07T04:43:15;93613.09;;;1.70;46.79
49393;BME280;35268;42.642;23.308;2023-04-07T04:45:41;93615.19;;;1.78;46.18
49393;BME280;35268;42.642;23.308;2023-04-07T04:48:06;93617.81;;;1.68;46.25
49393;BME280;35268;42.642;23.308;2023-04-07T04:50:31;93622.03;;;1.85;46.00
49393;BME280;35268;42.642;23.308;2023-04-07T04:52:57;93609.41;;;1.76;46.45
49393;BME280;35268;42.642;23.308;2023-04-07T04:55:22;93618.06;;;1.87;46.00
49393;BME280;35268;42.642;23.308;2023-04-07T04:57:48;93613.63;;;1.98;45.28
49393;BME280;35268;42.642;23.308;2023-04-07T05:00:13;93614.13;;;2.10;44.72
49393;BME280;35268;42.642;23.308;2023-04-07T05:02:39;93638.81;;;2.19;44.45
49393;BME280;35268;42.642;23.308;2023-04-07T05:05:05;93624.63;;;2.20;44.57
49393;BME280;35268;42.642;23.308;2023-04-07T05:07:30;93625.13;;;2.33;44.63
49393;BME280;35268;42.642;23.308;2023-04-07T05:09:55;93625.09;;;2.38;43.95
49393;BME280;35268;42.642;23.308;2023-04-07T05:12:21;93625.88;;;2.49;43.87
49393;BME280;35268;42.642;23.308;2023-04-07T05:14:46;93625.81;;;2.64;44.43
49393;BME280;35268;42.642;23.308;2023-04-07T05:17:12;93637.88;;;2.70;43.68
49393;BME280;35268;42.642;23.308;2023-04-07T05:19:37;93648.31;;;2.96;43.13
49393;BME280;35268;42.642;23.308;2023-04-07T05:22:03;93635.13;;;3.01;42.73
49393;BME280;35268;42.642;23.308;2023-04-07T05:24:28;93638.78;;;3.10;42.77
49393;BME280;35268;42.642;23.308;2023-04-07T05:26:54;93647.44;;;3.16;43.10
49393;BME280;35268;42.642;23.308;2023-04-07T05:29:20;93641.03;;;3.27;43.22
49393;BME280;35268;42.642;23.308;2023-04-07T05:31:46;93632.28;;;3.42;46.11
49393;BME280;35268;42.642;23.308;2023-04-07T05:34:11;93649.38;;;3.45;46.86
49393;BME280;35268;42.642;23.308;2023-04-07T05:36:37;93642.25;;;3.45;47.78
49393;BME280;35268;42.642;23.308;2023-04-07T05:39:02;93655.56;;;3.64;47.88
49393;BME280;35268;42.642;23.308;2023-04-07T05:41:27;93647.31;;;3.76;48.01
49393;BME280;35268;42.642;23.308;2023-04-07T05:43:53;93648.69;;;3.68;48.18
49393;BME280;35268;42.642;23.308;2023-04-07T05:46:18;93650.16;;;3.85;48.22
49393;BME280;35268;42.642;23.308;2023-04-07T05:48:44;93646.88;;;4.03;47.94
49393;BME280;35268;42.642;23.308;2023-04-07T05:51:10;93649.84;;;4.20;47.23
49393;BME280;35268;42.642;23.308;2023-04-07T05:53:35;93649.59;;;4.22;47.08
49393;BME280;35268;42.642;23.308;2023-04-07T05:56:01;93652.06;;;4.37;47.06
49393;BME280;35268;42.642;23.308;2023-04-07T05:58:26;93652.19;;;4.51;46.70
49393;BME280;35268;42.642;23.308;2023-04-07T06:00:52;93651.03;;;4.62;46.14
49393;BME280;35268;42.642;23.308;2023-04-07T06:03:17;93659.19;;;4.66;46.01
49393;BME280;35268;42.642;23.308;2023-04-07T06:05:45;93652.78;;;4.72;46.22
49393;BME280;35268;42.642;23.308;2023-04-07T06:08:11;93648.94;;;4.83;46.13
49393;BME280;35268;42.642;23.308;2023-04-07T06:10:36;93661.53;;;4.92;46.09
49393;BME280;35268;42.642;23.308;2023-04-07T06:13:02;93654.63;;;4.96;45.87
49393;BME280;35268;42.642;23.308;2023-04-07T06:15:27;93648.47;;;5.00;45.92
49393;BME280;35268;42.642;23.308;2023-04-07T06:17:53;93655.34;;;5.01;45.36
49393;BME280;35268;42.642;23.308;2023-04-07T06:20:18;93652.63;;;5.07;45.44
49393;BME280;35268;42.642;23.308;2023-04-07T06:22:46;93656.22;;;5.16;44.92
49393;BME280;35268;42.642;23.308;2023-04-07T06:25:11;93643.53;;;5.18;44.95
49393;BME280;35268;42.642;23.308;2023-04-07T06:27:37;93643.25;;;5.19;43.55
49393;BME280;35268;42.642;23.308;2023-04-07T06:30:04;93650.94;;;4.97;42.14
49393;BME280;35268;42.642;23.308;2023-04-07T06:32:30;93667.47;;;5.02;43.40
49393;BME280;35268;42.642;23.308;2023-04-07T06:34:55;93651.06;;;5.06;44.55
49393;BME280;35268;42.642;23.308;2023-04-07T06:37:21;93654.13;;;4.94;44.40
49393;BME280;35268;42.642;23.308;2023-04-07T06:39:48;93645.88;;;4.52;40.27
49393;BME280;35268;42.642;23.308;2023-04-07T06:42:14;93655.66;;;4.22;41.61
49393;BME280;35268;42.642;23.308;2023-04-07T06:44:39;93653.75;;;4.28;41.35
49393;BME280;35268;42.642;23.308;2023-04-07T06:47:05;93656.50;;;4.13;41.58
49393;BME280;35268;42.642;23.308;2023-04-07T06:49:30;93649.50;;;4.03;41.32
49393;BME280;35268;42.642;23.308;2023-04-07T06:51:56;93642.75;;;3.87;41.99
49393;BME280;35268;42.642;23.308;2023-04-07T06:54:21;93654.91;;;3.82;42.15
49393;BME280;35268;42.642;23.308;2023-04-07T06:56:46;93653.28;;;3.87;42.02
49393;BME280;35268;42.642;23.308;2023-04-07T06:59:12;93652.78;;;3.85;41.30
49393;BME280;35268;42.642;23.308;2023-04-07T07:01:37;93645.34;;;3.92;41.25
49393;BME280;35268;42.642;23.308;2023-04-07T07:04:03;93645.13;;;3.88;41.65
49393;BME280;35268;42.642;23.308;2023-04-07T07:06:30;93666.47;;;3.87;41.91
49393;BME280;35268;42.642;23.308;2023-04-07T07:08:56;93663.31;;;3.90;41.79
49393;BME280;35268;42.642;23.308;2023-04-07T07:11:21;93660.41;;;3.91;41.24
49393;BME280;35268;42.642;23.308;2023-04-07T07:13:47;93655.72;;;4.12;41.56
49393;BME280;35268;42.642;23.308;2023-04-07T07:16:12;93657.78;;;4.20;40.51
49393;BME280;35268;42.642;23.308;2023-04-07T07:18:37;93660.59;;;4.29;42.97
49393;BME280;35268;42.642;23.308;2023-04-07T07:21:03;93670.94;;;4.50;41.60
49393;BME280;35268;42.642;23.308;2023-04-07T07:23:29;93661.75;;;4.47;40.00
49393;BME280;35268;42.642;23.308;2023-04-07T07:25:54;93665.97;;;4.48;40.81
49393;BME280;35268;42.642;23.308;2023-04-07T07:28:20;93680.91;;;4.58;41.42
49393;BME280;35268;42.642;23.308;2023-04-07T07:30:46;93674.56;;;4.59;40.71
49393;BME280;35268;42.642;23.308;2023-04-07T07:33:12;93682.66;;;4.68;40.51
49393;BME280;35268;42.642;23.308;2023-04-07T07:35:37;93692.94;;;4.93;39.97
49393;BME280;35268;42.642;23.308;2023-04-07T07:38:04;93682.94;;;4.90;39.07
49393;BME280;35268;42.642;23.308;2023-04-07T07:40:30;93693.88;;;5.02;40.04
49393;BME280;35268;42.642;23.308;2023-04-07T07:42:56;93687.03;;;4.77;38.95
49393;BME280;35268;42.642;23.308;2023-04-07T07:45:21;93688.66;;;4.73;39.17
49393;BME280;35268;42.642;23.308;2023-04-07T07:47:47;93703.34;;;4.85;39.51
49393;BME280;35268;42.642;23.308;2023-04-07T07:50:12;93692.44;;;4.91;39.75
49393;BME280;35268;42.642;23.308;2023-04-07T07:52:38;93699.28;;;4.92;38.82
49393;BME280;35268;42.642;23.308;2023-04-07T07:55:03;93699.41;;;4.82;39.18
49393;BME280;35268;42.642;23.308;2023-04-07T07:57:29;93687.41;;;4.95;38.67
49393;BME280;35268;42.642;23.308;2023-04-07T07:59:57;93704.91;;;4.86;38.49
49393;BME280;35268;42.642;23.308;2023-04-07T08:02:23;93700.53;;;4.76;39.40
49393;BME280;35268;42.642;23.308;2023-04-07T08:04:55;93696.25;;;5.04;38.80
49393;BME280;35268;42.642;23.308;2023-04-07T08:07:20;93690.56;;;5.16;39.18
49393;BME280;35268;42.642;23.308;2023-04-07T08:09:46;93684.41;;;5.45;38.83
49393;BME280;35268;42.642;23.308;2023-04-07T08:12:11;93689.50;;;5.60;38.20
49393;BME280;35268;42.642;23.308;2023-04-07T08:14:36;93692.28;;;5.50;37.90
49393;BME280;35268;42.642;23.308;2023-04-07T08:17:02;93702.25;;;5.34;38.00
49393;BME280;35268;42.642;23.308;2023-04-07T08:19:27;93705.31;;;5.41;37.62
49393;BME280;35268;42.642;23.308;2023-04-07T08:21:53;93693.41;;;5.43;37.98
49393;BME280;35268;42.642;23.308;2023-04-07T08:24:18;93692.13;;;5.60;37.95
49393;BME280;35268;42.642;23.308;2023-04-07T08:26:44;93704.72;;;5.87;38.92
49393;BME280;35268;42.642;23.308;2023-04-07T08:29:09;93698.56;;;5.92;37.04
49393;BME280;35268;42.642;23.308;2023-04-07T08:31:35;93699.63;;;5.72;37.06
49393;BME280;35268;42.642;23.308;2023-04-07T08:34:00;93710.56;;;5.65;37.90
49393;BME280;35268;42.642;23.308;2023-04-07T08:36:26;93693.69;;;5.61;38.28
49393;BME280;35268;42.642;23.308;2023-04-07T08:38:52;93697.47;;;5.74;38.01
49393;BME280;35268;42.642;23.308;2023-04-07T08:41:23;93711.66;;;5.64;37.77
49393;BME280;35268;42.642;23.308;2023-04-07T08:43:52;93700.25;;;5.45;37.95
49393;BME280;35268;42.642;23.308;2023-04-07T08:46:20;93699.00;;;5.61;38.37
49393;BME280;35268;42.642;23.308;2023-04-07T08:48:50;93703.13;;;5.67;38.36
49393;BME280;35268;42.642;23.308;2023-04-07T08:51:23;93696.94;;;5.77;37.80
49393;BME280;35268;42.642;23.308;2023-04-07T08:53:53;93703.44;;;5.85;38.09
49393;BME280;35268;42.642;23.308;2023-04-07T08:56:19;93701.16;;;5.97;38.25
49393;BME280;35268;42.642;23.308;2023-04-07T08:58:46;93694.56;;;6.13;36.78
49393;BME280;35268;42.642;23.308;2023-04-07T09:01:12;93695.78;;;6.21;37.58
49393;BME280;35268;42.642;23.308;2023-04-07T09:03:38;93690.59;;;5.97;37.13
49393;BME280;35268;42.642;23.308;2023-04-07T09:06:04;93695.28;;;6.00;37.56
49393;BME280;35268;42.642;23.308;2023-04-07T09:08:30;93686.03;;;6.16;37.16
49393;BME280;35268;42.642;23.308;2023-04-07T09:10:56;93698.59;;;6.25;37.16
49393;BME280;35268;42.642;23.308;2023-04-07T09:13:23;93695.94;;;6.43;37.03
49393;BME280;35268;42.642;23.308;2023-04-07T09:15:48;93679.69;;;6.64;36.09
49393;BME280;35268;42.642;23.308;2023-04-07T09:18:14;93680.81;;;7.05;35.56
49393;BME280;35268;42.642;23.308;2023-04-07T09:21:03;93698.66;;;7.27;34.73
49393;BME280;35268;42.642;23.308;2023-04-07T09:23:32;93681.75;;;6.81;34.63
49393;BME280;35268;42.642;23.308;2023-04-07T09:25:58;93717.78;;;6.82;35.56
49393;BME280;35268;42.642;23.308;2023-04-07T09:28:24;93686.19;;;6.86;35.71
49393;BME280;35268;42.642;23.308;2023-04-07T09:30:54;93688.56;;;7.01;35.50
49393;BME280;35268;42.642;23.308;2023-04-07T09:33:29;93699.84;;;7.07;35.33
49393;BME280;35268;42.642;23.308;2023-04-07T09:35:55;93704.03;;;6.94;35.52
49393;BME280;35268;42.642;23.308;2023-04-07T09:38:21;93699.25;;;6.82;36.23
49393;BME280;35268;42.642;23.308;2023-04-07T09:40:47;93694.53;;;6.79;35.72
49393;BME280;35268;42.642;23.308;2023-04-07T09:43:17;93699.03;;;6.78;36.71
49393;BME280;35268;42.642;23.308;2023-04-07T09:45:43;93697.34;;;6.69;36.89
49393;BME280;35268;42.642;23.308;2023-04-07T09:48:19;93703.75;;;6.68;38.78
49393;BME280;35268;42.642;23.308;2023-04-07T09:50:45;93703.25;;;6.66;36.93
49393;BME280;35268;42.642;23.308;2023-04-07T09:53:14;93702.34;;;6.56;36.75
49393;BME280;35268;42.642;23.308;2023-04-07T09:55:41;93714.25;;;6.40;36.83
49393;BME280;35268;42.642;23.308;2023-04-07T09:58:06;93713.66;;;6.29;36.58
49393;BME280;35268;42.642;23.308;2023-04-07T10:00:34;93709.19;;;6.43;36.77
49393;BME280;35268;42.642;23.308;2023-04-07T10:03:00;93700.66;;;6.60;36.84
49393;BME280;35268;42.642;23.308;2023-04-07T10:05:26;93712.47;;;6.68;36.66
49393;BME280;35268;42.642;23.308;2023-04-07T10:07:52;93708.03;;;6.63;37.01
49393;BME280;35268;42.642;23.308;2023-04-07T10:10:18;93716.69;;;6.83;36.56
49393;BME280;35268;42.642;23.308;2023-04-07T10:12:44;93708.47;;;6.85;36.17
49393;BME280;35268;42.642;23.308;2023-04-07T10:15:14;93705.72;;;7.03;36.19
49393;BME280;35268;42.642;23.308;2023-04-07T10:17:44;93707.69;;;7.12;35.85
49393;BME280;35268;42.642;23.308;2023-04-07T10:20:12;93707.31;;;7.05;35.68
49393;BME280;35268;42.642;23.308;2023-04-07T10:22:40;93713.16;;;6.88;35.88
49393;BME280;35268;42.642;23.308;2023-04-07T10:25:11;93700.63;;;6.93;35.79
49393;BME280;35268;42.642;23.308;2023-04-07T10:27:42;93706.31;;;7.14;35.56
49393;BME280;35268;42.642;23.308;2023-04-07T10:30:17;93708.88;;;7.06;35.28
49393;BME280;35268;42.642;23.308;2023-04-07T10:32:49;93718.78;;;7.14;36.09
49393;BME280;35268;42.642;23.308;2023-04-07T10:35:15;93716.41;;;7.12;36.49
49393;BME280;35268;42.642;23.308;2023-04-07T10:40:33;93715.63;;;6.84;36.30
49393;BME280;35268;42.642;23.308;2023-04-07T10:42:59;93723.59;;;6.84;36.78
49393;BME280;35268;42.642;23.308;2023-04-07T10:48:14;93701.03;;;7.00;36.05
49393;BME280;35268;42.642;23.308;2023-04-07T10:50:40;93705.22;;;7.01;37.04
49393;BME280;35268;42.642;23.308;2023-04-07T10:53:10;93706.72;;;7.08;36.42
49393;BME280;35268;42.642;23.308;2023-04-07T10:55:38;93718.97;;;7.03;36.14
49393;BME280;35268;42.642;23.308;2023-04-07T10:58:26;93720.44;;;6.96;38.66
49393;BME280;35268;42.642;23.308;2023-04-07T11:06:06;93732.78;;;6.73;39.71
49393;BME280;35268;42.642;23.308;2023-04-07T11:08:33;93723.88;;;6.82;40.12
49393;BME280;35268;42.642;23.308;2023-04-07T11:10:58;93735.25;;;6.97;40.08
49393;BME280;35268;42.642;23.308;2023-04-07T11:13:25;93728.69;;;6.94;40.86
49393;BME280;35268;42.642;23.308;2023-04-07T11:15:51;93730.84;;;6.92;39.94
49393;BME280;35268;42.642;23.308;2023-04-07T11:18:21;93726.03;;;6.94;40.22
49393;BME280;35268;42.642;23.308;2023-04-07T11:20:49;93732.59;;;6.83;39.73
49393;BME280;35268;42.642;23.308;2023-04-07T11:23:16;93730.03;;;6.92;39.82
49393;BME280;35268;42.642;23.308;2023-04-07T11:25:43;93729.88;;;7.16;39.43
49393;BME280;35268;42.642;23.308;2023-04-07T11:28:10;93729.09;;;7.29;39.62
49393;BME280;35268;42.642;23.308;2023-04-07T11:30:44;93730.56;;;7.35;38.60
49393;BME280;35268;42.642;23.308;2023-04-07T11:33:14;93721.63;;;7.45;40.09
49393;BME280;35268;42.642;23.308;2023-04-07T11:35:47;93729.19;;;7.52;39.13
49393;BME280;35268;42.642;23.308;2023-04-07T11:38:12;93732.25;;;7.45;39.52
49393;BME280;35268;42.642;23.308;2023-04-07T11:40:38;93733.59;;;7.42;40.29
49393;BME280;35268;42.642;23.308;2023-04-07T11:43:23;93739.31;;;7.36;40.95
49393;BME280;35268;42.642;23.308;2023-04-07T11:46:09;93731.84;;;7.24;40.06
49393;BME280;35268;42.642;23.308;2023-04-07T11:48:37;93728.13;;;7.11;38.31
49393;BME280;35268;42.642;23.308;2023-04-07T11:51:03;93729.69;;;7.26;40.60
49393;BME280;35268;42.642;23.308;2023-04-07T11:53:30;93738.91;;;7.42;40.61
49393;BME280;35268;42.642;23.308;2023-04-07T11:56:10;93726.03;;;7.50;40.39
49393;BME280;35268;42.642;23.308;2023-04-07T11:58:46;93726.69;;;7.69;39.84
49393;BME280;35268;42.642;23.308;2023-04-07T12:01:12;93730.09;;;7.83;39.79
49393;BME280;35268;42.642;23.308;2023-04-07T12:03:57;93732.34;;;8.04;40.18
49393;BME280;35268;42.642;23.308;2023-04-07T12:06:29;93725.59;;;8.20;39.63
49393;BME280;35268;42.642;23.308;2023-04-07T12:08:59;93733.59;;;8.43;39.45
49393;BME280;35268;42.642;23.308;2023-04-07T12:11:24;93730.53;;;8.36;38.79
49393;BME280;35268;42.642;23.308;2023-04-07T12:13:50;93723.16;;;8.10;39.43
49393;BME280;35268;42.642;23.308;2023-04-07T12:16:17;93726.84;;;8.23;40.35
49393;BME280;35268;42.642;23.308;2023-04-07T12:18:43;93728.00;;;8.31;39.37
49393;BME280;35268;42.642;23.308;2023-04-07T12:21:08;93722.75;;;8.39;38.67
49393;BME280;35268;42.642;23.308;2023-04-07T12:23:34;93720.78;;;8.45;38.58
49393;BME280;35268;42.642;23.308;2023-04-07T12:26:00;93722.25;;;8.51;38.91
49393;BME280;35268;42.642;23.308;2023-04-07T12:28:26;93730.03;;;8.48;38.24
49393;BME280;35268;42.642;23.308;2023-04-07T12:30:51;93736.69;;;8.22;38.95
49393;BME280;35268;42.642;23.308;2023-04-07T12:33:17;93728.00;;;8.31;39.54
49393;BME280;35268;42.642;23.308;2023-04-07T12:35:43;93734.56;;;8.47;38.39
49393;BME280;35268;42.642;23.308;2023-04-07T12:38:08;93718.13;;;8.68;38.77
49393;BME280;35268;42.642;23.308;2023-04-07T12:40:34;93726.66;;;8.87;37.97
49393;BME280;35268;42.642;23.308;2023-04-07T12:43:00;93731.69;;;8.97;37.79
49393;BME280;35268;42.642;23.308;2023-04-07T12:45:26;93739.94;;;8.87;37.81
49393;BME280;35268;42.642;23.308;2023-04-07T12:47:53;93739.47;;;8.85;37.19
49393;BME280;35268;42.642;23.308;2023-04-07T12:50:19;93742.94;;;8.63;38.04
49393;BME280;35268;42.642;23.308;2023-04-07T12:52:44;93746.94;;;8.52;38.11
49393;BME280;35268;42.642;23.308;2023-04-07T12:55:10;93731.19;;;8.55;38.38
49393;BME280;35268;42.642;23.308;2023-04-07T12:57:36;93731.19;;;8.55;38.10
49393;BME280;35268;42.642;23.308;2023-04-07T13:00:02;93733.81;;;8.78;37.73
49393;BME280;35268;42.642;23.308;2023-04-07T13:02:27;93743.75;;;8.95;37.39
49393;BME280;35268;42.642;23.308;2023-04-07T13:04:53;93737.56;;;9.08;37.58
49393;BME280;35268;42.642;23.308;2023-04-07T13:07:18;93744.16;;;9.19;36.72
49393;BME280;35268;42.642;23.308;2023-04-07T13:09:44;93740.13;;;9.22;36.96
49393;BME280;35268;42.642;23.308;2023-04-07T13:12:10;93740.94;;;9.31;37.41
49393;BME280;35268;42.642;23.308;2023-04-07T13:14:39;93751.75;;;8.72;37.50
49393;BME280;35268;42.642;23.308;2023-04-07T13:17:06;93748.59;;;8.70;38.46